sensor_id;sensor_type;location;lat;lon;timestamp;temperature;humidity
5055;DHT22;13829;48.990;8.346;2023-04-03T00:00:30;6.20;99.40
5055;DHT22;13829;48.990;8.346;2023-04-03T00:03:08;6.30;99.50
5055;DHT22;13829;48.990;8.346;2023-04-03T00:05:54;6.30;99.30
5055;DHT22;13829;48.990;8.346;2023-04-03T00:08:28;6.30;99.10
5055;DHT22;13829;48.990;8.346;2023-04-03T00:11:35;6.40;99.10
5055;DHT22;13829;48.990;8.346;2023-04-03T00:14:31;6.30;99.40
5055;DHT22;13829;48.990;8.346;2023-04-03T00:17:08;6.30;99.30
5055;DHT22;13829;48.990;8.346;2023-04-03T00:19:49;6.20;99.50
5055;DHT22;13829;48.990;8.346;2023-04-03T00:22:27;6.30;99.80
5055;DHT22;13829;48.990;8.346;2023-04-03T00:25:12;6.20;99.40
5055;DHT22;13829;48.990;8.346;2023-04-03T00:28:02;6.40;99.60
5055;DHT22;13829;48.990;8.346;2023-04-03T00:30:43;6.40;99.40
5055;DHT22;13829;48.990;8.346;2023-04-03T00:33:37;6.30;99.40
5055;DHT22;13829;48.990;8.346;2023-04-03T00:36:10;6.20;99.90
5055;DHT22;13829;48.990;8.346;2023-04-03T00:38:42;6.20;99.80
5055;DHT22;13829;48.990;8.346;2023-04-03T00:41:10;6.20;99.70
5055;DHT22;13829;48.990;8.346;2023-04-03T00:43:39;6.20;99.70
5055;DHT22;13829;48.990;8.346;2023-04-03T00:46:06;6.20;99.90
5055;DHT22;13829;48.990;8.346;2023-04-03T00:48:37;6.20;99.70
5055;DHT22;13829;48.990;8.346;2023-04-03T00:51:11;6.30;99.90
5055;DHT22;13829;48.990;8.346;2023-04-03T00:53:44;6.20;99.90
5055;DHT22;13829;48.990;8.346;2023-04-03T00:56:19;6.30;99.90
5055;DHT22;13829;48.990;8.346;2023-04-03T00:58:54;6.30;99.70
5055;DHT22;13829;48.990;8.346;2023-04-03T01:01:27;6.30;99.90
5055;DHT22;13829;48.990;8.346;2023-04-03T01:03:56;6.20;99.80
5055;DHT22;13829;48.990;8.346;2023-04-03T01:06:28;6.30;99.80
5055;DHT22;13829;48.990;8.346;2023-04-03T01:08:59;6.40;99.90
5055;DHT22;13829;48.990;8.346;2023-04-03T01:11:28;6.40;99.70
5055;DHT22;13829;48.990;8.346;2023-04-03T01:13:57;6.40;99.60
5055;DHT22;13829;48.990;8.346;2023-04-03T01:16:25;6.30;99.50
5055;DHT22;13829;48.990;8.346;2023-04-03T01:18:55;6.30;99.80
5055;DHT22;13829;48.990;8.346;2023-04-03T01:21:48;6.20;99.80
5055;DHT22;13829;48.990;8.346;2023-04-03T01:24:34;6.20;99.30
5055;DHT22;13829;48.990;8.346;2023-04-03T01:27:06;6.30;99.50
5055;DHT22;13829;48.990;8.346;2023-04-03T01:29:37;6.20;99.40
5055;DHT22;13829;48.990;8.346;2023-04-03T01:32:06;6.10;99.40
5055;DHT22;13829;48.990;8.346;2023-04-03T01:34:35;6.10;99.80
5055;DHT22;13829;48.990;8.346;2023-04-03T01:37:02;6.10;99.60
5055;DHT22;13829;48.990;8.346;2023-04-03T01:39:30;6.10;99.80
5055;DHT22;13829;48.990;8.346;2023-04-03T01:41:57;6.10;99.70
5055;DHT22;13829;48.990;8.346;2023-04-03T01:44:26;6.10;99.60
5055;DHT22;13829;48.990;8.346;2023-04-03T01:46:53;6.10;99.20
5055;DHT22;13829;48.990;8.346;2023-04-03T01:49:24;6.10;99.60
5055;DHT22;13829;48.990;8.346;2023-04-03T01:51:54;6.10;99.40
5055;DHT22;13829;48.990;8.346;2023-04-03T01:54:22;6.00;99.50
5055;DHT22;13829;48.990;8.346;2023-04-03T01:56:49;6.00;99.60
5055;DHT22;13829;48.990;8.346;2023-04-03T01:59:17;6.00;99.50
5055;DHT22;13829;48.990;8.346;2023-04-03T02:01:46;5.90;99.50
5055;DHT22;13829;48.990;8.346;2023-04-03T02:04:13;5.90;99.70
5055;DHT22;13829;48.990;8.346;2023-04-03T02:06:41;5.90;99.80
5055;DHT22;13829;48.990;8.346;2023-04-03T02:09:08;5.70;99.90
5055;DHT22;13829;48.990;8.346;2023-04-03T02:11:35;5.70;99.90
5055;DHT22;13829;48.990;8.346;2023-04-03T02:14:02;5.80;99.90
5055;DHT22;13829;48.990;8.346;2023-04-03T02:16:29;5.70;99.90
5055;DHT22;13829;48.990;8.346;2023-04-03T02:18:57;5.70;99.90
5055;DHT22;13829;48.990;8.346;2023-04-03T02:21:24;5.60;99.90
5055;DHT22;13829;48.990;8.346;2023-04-03T02:23:54;5.50;99.90
5055;DHT22;13829;48.990;8.346;2023-04-03T02:26:21;5.50;99.90
5055;DHT22;13829;48.990;8.346;2023-04-03T02:28:51;5.50;99.90
5055;DHT22;13829;48.990;8.346;2023-04-03T02:31:25;5.50;99.90
5055;DHT22;13829;48.990;8.346;2023-04-03T02:33:53;5.40;99.90
5055;DHT22;13829;48.990;8.346;2023-04-03T02:36:20;5.40;99.90
5055;DHT22;13829;48.990;8.346;2023-04-03T02:38:47;5.30;99.90
5055;DHT22;13829;48.990;8.346;2023-04-03T02:41:16;5.20;99.90
5055;DHT22;13829;48.990;8.346;2023-04-03T02:43:43;5.20;99.90
5055;DHT22;13829;48.990;8.346;2023-04-03T02:46:12;5.20;99.90
5055;DHT22;13829;48.990;8.346;2023-04-03T02:48:40;5.10;99.90
5055;DHT22;13829;48.990;8.346;2023-04-03T02:51:07;5.10;99.90
5055;DHT22;13829;48.990;8.346;2023-04-03T02:53:36;5.30;99.90
5055;DHT22;13829;48.990;8.346;2023-04-03T02:56:04;5.10;99.90
5055;DHT22;13829;48.990;8.346;2023-04-03T02:58:38;5.10;99.90
5055;DHT22;13829;48.990;8.346;2023-04-03T03:01:05;5.00;99.90
5055;DHT22;13829;48.990;8.346;2023-04-03T03:03:33;5.00;99.90
5055;DHT22;13829;48.990;8.346;2023-04-03T03:06:06;5.00;99.90
5055;DHT22;13829;48.990;8.346;2023-04-03T03:08:39;5.00;99.90
5055;DHT22;13829;48.990;8.346;2023-04-03T03:11:11;4.90;99.90
5055;DHT22;13829;48.990;8.346;2023-04-03T03:13:39;4.90;99.90
5055;DHT22;13829;48.990;8.346;2023-04-03T03:16:08;4.80;99.90
5055;DHT22;13829;48.990;8.346;2023-04-03T03:18:36;4.70;99.90
5055;DHT22;13829;48.990;8.346;2023-04-03T03:21:04;4.70;99.90
5055;DHT22;13829;48.990;8.346;2023-04-03T03:23:32;4.70;99.90
5055;DHT22;13829;48.990;8.346;2023-04-03T03:26:06;4.80;99.90
5055;DHT22;13829;48.990;8.346;2023-04-03T03:28:35;4.80;99.90
5055;DHT22;13829;48.990;8.346;2023-04-03T03:31:09;4.80;99.90
5055;DHT22;13829;48.990;8.346;2023-04-03T03:33:37;4.70;99.90
5055;DHT22;13829;48.990;8.346;2023-04-03T03:36:05;4.70;99.90
5055;DHT22;13829;48.990;8.346;2023-04-03T03:38:35;4.70;99.90
5055;DHT22;13829;48.990;8.346;2023-04-03T03:41:04;4.70;99.90
5055;DHT22;13829;48.990;8.346;2023-04-03T03:43:32;4.70;99.90
5055;DHT22;13829;48.990;8.346;2023-04-03T03:46:02;4.70;99.90
5055;DHT22;13829;48.990;8.346;2023-04-03T03:48:31;4.60;99.90
5055;DHT22;13829;48.990;8.346;2023-04-03T03:50:57;4.60;99.90
5055;DHT22;13829;48.990;8.346;2023-04-03T03:53:31;4.60;99.90
5055;DHT22;13829;48.990;8.346;2023-04-03T03:56:00;4.60;99.90
5055;DHT22;13829;48.990;8.346;2023-04-03T03:58:27;4.70;99.90
5055;DHT22;13829;48.990;8.346;2023-04-03T04:00:55;4.70;99.90
5055;DHT22;13829;48.990;8.346;2023-04-03T04:03:26;4.70;99.90
5055;DHT22;13829;48.990;8.346;2023-04-03T04:05:56;4.60;99.90
5055;DHT22;13829;48.990;8.346;2023-04-03T04:08:26;4.70;99.90
5055;DHT22;13829;48.990;8.346;2023-04-03T04:10:53;4.70;99.90
5055;DHT22;13829;48.990;8.346;2023-04-03T04:13:20;4.70;99.90
5055;DHT22;13829;48.990;8.346;2023-04-03T04:15:49;4.70;99.90
5055;DHT22;13829;48.990;8.346;2023-04-03T04:18:36;4.60;99.90
5055;DHT22;13829;48.990;8.346;2023-04-03T04:21:06;4.70;99.90
5055;DHT22;13829;48.990;8.346;2023-04-03T04:23:33;4.90;99.90
5055;DHT22;13829;48.990;8.346;2023-04-03T04:26:00;4.80;99.90
5055;DHT22;13829;48.990;8.346;2023-04-03T04:28:28;4.80;99.90
5055;DHT22;13829;48.990;8.346;2023-04-03T04:30:55;4.70;99.90
5055;DHT22;13829;48.990;8.346;2023-04-03T04:33:28;4.70;99.90
5055;DHT22;13829;48.990;8.346;2023-04-03T04:35:59;4.70;99.90
5055;DHT22;13829;48.990;8.346;2023-04-03T04:38:26;4.80;99.90
5055;DHT22;13829;48.990;8.346;2023-04-03T04:40:53;4.80;99.90
5055;DHT22;13829;48.990;8.346;2023-04-03T04:43:22;4.80;99.90
5055;DHT22;13829;48.990;8.346;2023-04-03T04:45:49;4.80;99.90
5055;DHT22;13829;48.990;8.346;2023-04-03T04:48:27;4.80;99.90
5055;DHT22;13829;48.990;8.346;2023-04-03T04:50:54;4.80;99.90
5055;DHT22;13829;48.990;8.346;2023-04-03T04:53:27;4.90;99.90
5055;DHT22;13829;48.990;8.346;2023-04-03T04:55:55;4.80;99.90
5055;DHT22;13829;48.990;8.346;2023-04-03T04:58:29;4.90;99.90
5055;DHT22;13829;48.990;8.346;2023-04-03T05:00:59;4.80;99.90
5055;DHT22;13829;48.990;8.346;2023-04-03T05:03:29;4.80;99.90
5055;DHT22;13829;48.990;8.346;2023-04-03T05:06:00;4.70;99.90
5055;DHT22;13829;48.990;8.346;2023-04-03T05:08:32;4.70;99.90
5055;DHT22;13829;48.990;8.346;2023-04-03T05:11:01;4.70;99.90
5055;DHT22;13829;48.990;8.346;2023-04-03T05:13:28;4.80;99.90
5055;DHT22;13829;48.990;8.346;2023-04-03T05:15:57;4.80;99.90
5055;DHT22;13829;48.990;8.346;2023-04-03T05:18:28;4.80;99.90
5055;DHT22;13829;48.990;8.346;2023-04-03T05:20:55;4.70;99.90
5055;DHT22;13829;48.990;8.346;2023-04-03T05:23:23;4.70;99.90
5055;DHT22;13829;48.990;8.346;2023-04-03T05:25:54;4.70;99.90
5055;DHT22;13829;48.990;8.346;2023-04-03T05:28:27;4.70;99.90
5055;DHT22;13829;48.990;8.346;2023-04-03T05:30:54;4.60;99.90
5055;DHT22;13829;48.990;8.346;2023-04-03T05:33:22;4.50;99.90
5055;DHT22;13829;48.990;8.346;2023-04-03T05:35:52;4.40;99.90
5055;DHT22;13829;48.990;8.346;2023-04-03T05:38:24;4.30;99.90
5055;DHT22;13829;48.990;8.346;2023-04-03T05:40:50;4.20;99.90
5055;DHT22;13829;48.990;8.346;2023-04-03T05:43:19;4.30;99.90
5055;DHT22;13829;48.990;8.346;2023-04-03T05:45:56;4.30;99.90
5055;DHT22;13829;48.990;8.346;2023-04-03T05:48:23;4.30;99.90
5055;DHT22;13829;48.990;8.346;2023-04-03T05:50:50;4.30;99.90
5055;DHT22;13829;48.990;8.346;2023-04-03T05:53:20;4.40;99.90
5055;DHT22;13829;48.990;8.346;2023-04-03T05:55:50;4.50;99.90
5055;DHT22;13829;48.990;8.346;2023-04-03T05:58:21;4.40;99.90
5055;DHT22;13829;48.990;8.346;2023-04-03T06:00:50;4.60;99.90
5055;DHT22;13829;48.990;8.346;2023-04-03T06:03:18;4.70;99.90
5055;DHT22;13829;48.990;8.346;2023-04-03T06:05:46;4.60;99.90
5055;DHT22;13829;48.990;8.346;2023-04-03T06:08:14;4.60;99.90
5055;DHT22;13829;48.990;8.346;2023-04-03T06:10:41;4.60;99.90
5055;DHT22;13829;48.990;8.346;2023-04-03T06:13:08;4.60;99.90
5055;DHT22;13829;48.990;8.346;2023-04-03T06:15:41;4.80;99.90
5055;DHT22;13829;48.990;8.346;2023-04-03T06:18:18;4.80;99.90
5055;DHT22;13829;48.990;8.346;2023-04-03T06:20:46;4.90;99.90
5055;DHT22;13829;48.990;8.346;2023-04-03T06:23:13;4.90;99.90
5055;DHT22;13829;48.990;8.346;2023-04-03T06:25:46;5.00;99.90
5055;DHT22;13829;48.990;8.346;2023-04-03T06:28:15;5.00;99.90
5055;DHT22;13829;48.990;8.346;2023-04-03T06:30:47;5.00;99.90
5055;DHT22;13829;48.990;8.346;2023-04-03T06:33:15;5.10;99.90
5055;DHT22;13829;48.990;8.346;2023-04-03T06:35:55;5.10;99.90
5055;DHT22;13829;48.990;8.346;2023-04-03T06:38:33;5.20;99.90
5055;DHT22;13829;48.990;8.346;2023-04-03T06:41:01;5.20;99.90
5055;DHT22;13829;48.990;8.346;2023-04-03T06:43:30;5.20;99.90
5055;DHT22;13829;48.990;8.346;2023-04-03T06:45:59;5.30;99.90
5055;DHT22;13829;48.990;8.346;2023-04-03T06:48:26;5.60;99.90
5055;DHT22;13829;48.990;8.346;2023-04-03T06:50:53;5.80;99.90
5055;DHT22;13829;48.990;8.346;2023-04-03T06:53:22;6.30;99.80
5055;DHT22;13829;48.990;8.346;2023-04-03T06:55:50;7.00;98.60
5055;DHT22;13829;48.990;8.346;2023-04-03T06:58:17;8.00;96.80
5055;DHT22;13829;48.990;8.346;2023-04-03T07:00:56;8.10;96.10
5055;DHT22;13829;48.990;8.346;2023-04-03T07:03:26;8.30;95.50
5055;DHT22;13829;48.990;8.346;2023-04-03T07:05:54;9.00;94.10
5055;DHT22;13829;48.990;8.346;2023-04-03T07:08:21;9.80;92.70
5055;DHT22;13829;48.990;8.346;2023-04-03T07:10:51;9.70;92.10
5055;DHT22;13829;48.990;8.346;2023-04-03T07:13:24;9.10;92.30
5055;DHT22;13829;48.990;8.346;2023-04-03T07:15:52;9.10;92.60
5055;DHT22;13829;48.990;8.346;2023-04-03T07:18:20;8.70;93.30
5055;DHT22;13829;48.990;8.346;2023-04-03T07:20:49;8.80;93.90
5055;DHT22;13829;48.990;8.346;2023-04-03T07:23:16;9.30;93.10
5055;DHT22;13829;48.990;8.346;2023-04-03T07:25:48;9.70;92.40
5055;DHT22;13829;48.990;8.346;2023-04-03T07:28:17;9.10;92.60
5055;DHT22;13829;48.990;8.346;2023-04-03T07:30:47;8.60;93.50
5055;DHT22;13829;48.990;8.346;2023-04-03T07:33:16;7.90;94.90
5055;DHT22;13829;48.990;8.346;2023-04-03T07:35:45;8.20;95.50
5055;DHT22;13829;48.990;8.346;2023-04-03T07:38:14;9.50;93.70
5055;DHT22;13829;48.990;8.346;2023-04-03T07:40:45;11.00;91.30
5055;DHT22;13829;48.990;8.346;2023-04-03T07:43:13;11.40;87.20
5055;DHT22;13829;48.990;8.346;2023-04-03T07:45:44;12.20;86.30
5055;DHT22;13829;48.990;8.346;2023-04-03T07:48:14;12.70;82.20
5055;DHT22;13829;48.990;8.346;2023-04-03T07:50:43;13.00;80.90
5055;DHT22;13829;48.990;8.346;2023-04-03T07:53:11;13.50;78.00
5055;DHT22;13829;48.990;8.346;2023-04-03T07:55:40;13.00;77.70
5055;DHT22;13829;48.990;8.346;2023-04-03T07:58:12;12.50;79.90
5055;DHT22;13829;48.990;8.346;2023-04-03T08:00:41;12.70;79.30
5055;DHT22;13829;48.990;8.346;2023-04-03T08:03:10;12.50;78.90
5055;DHT22;13829;48.990;8.346;2023-04-03T08:05:38;12.40;78.40
5055;DHT22;13829;48.990;8.346;2023-04-03T08:08:12;12.50;79.90
5055;DHT22;13829;48.990;8.346;2023-04-03T08:10:42;12.10;80.30
5055;DHT22;13829;48.990;8.346;2023-04-03T08:13:09;11.60;80.70
5055;DHT22;13829;48.990;8.346;2023-04-03T08:15:39;11.70;80.90
5055;DHT22;13829;48.990;8.346;2023-04-03T08:18:07;11.20;82.90
5055;DHT22;13829;48.990;8.346;2023-04-03T08:20:34;10.60;83.40
5055;DHT22;13829;48.990;8.346;2023-04-03T08:23:03;10.10;84.80
5055;DHT22;13829;48.990;8.346;2023-04-03T08:25:31;9.80;87.60
5055;DHT22;13829;48.990;8.346;2023-04-03T08:28:00;10.00;87.40
5055;DHT22;13829;48.990;8.346;2023-04-03T08:30:28;10.20;86.40
5055;DHT22;13829;48.990;8.346;2023-04-03T08:32:55;10.20;86.70
5055;DHT22;13829;48.990;8.346;2023-04-03T08:35:22;9.80;88.20
5055;DHT22;13829;48.990;8.346;2023-04-03T08:37:49;9.70;89.90
5055;DHT22;13829;48.990;8.346;2023-04-03T08:40:17;10.10;88.90
5055;DHT22;13829;48.990;8.346;2023-04-03T08:42:54;10.30;89.40
5055;DHT22;13829;48.990;8.346;2023-04-03T08:45:40;10.90;90.10
5055;DHT22;13829;48.990;8.346;2023-04-03T08:48:15;11.20;84.30
5055;DHT22;13829;48.990;8.346;2023-04-03T08:50:50;11.20;85.70
5055;DHT22;13829;48.990;8.346;2023-04-03T08:53:22;10.90;83.10
5055;DHT22;13829;48.990;8.346;2023-04-03T08:55:55;10.50;84.70
5055;DHT22;13829;48.990;8.346;2023-04-03T08:58:26;10.40;87.60
5055;DHT22;13829;48.990;8.346;2023-04-03T09:01:00;10.40;86.30
5055;DHT22;13829;48.990;8.346;2023-04-03T09:03:34;10.60;88.80
5055;DHT22;13829;48.990;8.346;2023-04-03T09:06:06;10.90;84.10
5055;DHT22;13829;48.990;8.346;2023-04-03T09:08:44;10.70;81.10
5055;DHT22;13829;48.990;8.346;2023-04-03T09:11:42;10.30;82.40
5055;DHT22;13829;48.990;8.346;2023-04-03T09:14:21;10.00;84.60
5055;DHT22;13829;48.990;8.346;2023-04-03T09:17:02;10.20;84.60
5055;DHT22;13829;48.990;8.346;2023-04-03T09:19:37;10.30;86.20
5055;DHT22;13829;48.990;8.346;2023-04-03T09:22:16;10.40;85.70
5055;DHT22;13829;48.990;8.346;2023-04-03T09:24:48;10.10;81.30
5055;DHT22;13829;48.990;8.346;2023-04-03T09:27:22;9.60;84.80
5055;DHT22;13829;48.990;8.346;2023-04-03T09:29:54;9.40;84.20
5055;DHT22;13829;48.990;8.346;2023-04-03T09:32:27;9.50;86.10
5055;DHT22;13829;48.990;8.346;2023-04-03T09:34:58;9.70;84.90
5055;DHT22;13829;48.990;8.346;2023-04-03T09:37:38;9.70;84.70
5055;DHT22;13829;48.990;8.346;2023-04-03T09:40:29;9.30;84.90
5055;DHT22;13829;48.990;8.346;2023-04-03T09:43:01;9.40;87.20
5055;DHT22;13829;48.990;8.346;2023-04-03T09:45:49;9.50;86.60
5055;DHT22;13829;48.990;8.346;2023-04-03T09:48:18;9.30;85.10
5055;DHT22;13829;48.990;8.346;2023-04-03T09:51:03;9.50;89.40
5055;DHT22;13829;48.990;8.346;2023-04-03T09:53:34;9.70;85.80
5055;DHT22;13829;48.990;8.346;2023-04-03T09:56:21;9.50;85.90
5055;DHT22;13829;48.990;8.346;2023-04-03T09:59:05;9.40;82.90
5055;DHT22;13829;48.990;8.346;2023-04-03T10:01:42;9.30;85.30
5055;DHT22;13829;48.990;8.346;2023-04-03T10:04:23;9.50;84.70
5055;DHT22;13829;48.990;8.346;2023-04-03T10:06:56;9.50;83.60
5055;DHT22;13829;48.990;8.346;2023-04-03T10:09:28;9.20;82.20
5055;DHT22;13829;48.990;8.346;2023-04-03T10:12:04;9.20;82.70
5055;DHT22;13829;48.990;8.346;2023-04-03T10:14:34;9.30;83.60
5055;DHT22;13829;48.990;8.346;2023-04-03T10:17:13;9.50;80.90
5055;DHT22;13829;48.990;8.346;2023-04-03T10:19:47;9.60;81.20
5055;DHT22;13829;48.990;8.346;2023-04-03T10:22:21;9.70;78.30
5055;DHT22;13829;48.990;8.346;2023-04-03T10:25:04;9.70;75.20
5055;DHT22;13829;48.990;8.346;2023-04-03T10:27:49;9.70;75.60
5055;DHT22;13829;48.990;8.346;2023-04-03T10:30:34;9.70;74.50
5055;DHT22;13829;48.990;8.346;2023-04-03T10:33:24;9.60;74.70
5055;DHT22;13829;48.990;8.346;2023-04-03T10:36:13;9.40;76.50
5055;DHT22;13829;48.990;8.346;2023-04-03T10:38:53;9.50;75.10
5055;DHT22;13829;48.990;8.346;2023-04-03T10:41:35;9.80;73.90
5055;DHT22;13829;48.990;8.346;2023-04-03T10:44:24;10.20;70.70
5055;DHT22;13829;48.990;8.346;2023-04-03T10:47:09;10.50;71.30
5055;DHT22;13829;48.990;8.346;2023-04-03T10:49:53;10.60;70.10
5055;DHT22;13829;48.990;8.346;2023-04-03T10:52:31;10.80;69.20
5055;DHT22;13829;48.990;8.346;2023-04-03T10:55:22;10.80;66.10
5055;DHT22;13829;48.990;8.346;2023-04-03T10:57:58;10.90;67.30
5055;DHT22;13829;48.990;8.346;2023-04-03T11:00:33;10.70;65.50
5055;DHT22;13829;48.990;8.346;2023-04-03T11:03:08;10.50;66.80
5055;DHT22;13829;48.990;8.346;2023-04-03T11:05:45;10.50;66.00
5055;DHT22;13829;48.990;8.346;2023-04-03T11:08:25;10.10;66.50
5055;DHT22;13829;48.990;8.346;2023-04-03T11:10:59;10.10;66.80
5055;DHT22;13829;48.990;8.346;2023-04-03T11:13:34;10.10;66.80
5055;DHT22;13829;48.990;8.346;2023-04-03T11:16:06;10.10;68.60
5055;DHT22;13829;48.990;8.346;2023-04-03T11:18:47;10.30;68.00
5055;DHT22;13829;48.990;8.346;2023-04-03T11:21:22;10.10;68.30
5055;DHT22;13829;48.990;8.346;2023-04-03T11:23:57;9.90;68.00
5055;DHT22;13829;48.990;8.346;2023-04-03T11:26:29;9.90;67.90
5055;DHT22;13829;48.990;8.346;2023-04-03T11:29:06;9.70;67.70
5055;DHT22;13829;48.990;8.346;2023-04-03T11:31:56;9.80;68.00
5055;DHT22;13829;48.990;8.346;2023-04-03T11:34:41;9.80;68.40
5055;DHT22;13829;48.990;8.346;2023-04-03T11:37:20;9.80;66.90
5055;DHT22;13829;48.990;8.346;2023-04-03T11:39:58;9.80;68.40
5055;DHT22;13829;48.990;8.346;2023-04-03T11:42:36;10.00;66.90
5055;DHT22;13829;48.990;8.346;2023-04-03T11:45:26;10.00;68.40
5055;DHT22;13829;48.990;8.346;2023-04-03T11:48:00;10.10;65.60
5055;DHT22;13829;48.990;8.346;2023-04-03T11:50:44;9.80;67.10
5055;DHT22;13829;48.990;8.346;2023-04-03T11:53:32;9.90;68.30
5055;DHT22;13829;48.990;8.346;2023-04-03T11:56:03;9.80;69.20
5055;DHT22;13829;48.990;8.346;2023-04-03T11:59:16;9.60;69.90
5055;DHT22;13829;48.990;8.346;2023-04-03T12:01:50;9.70;69.10
5055;DHT22;13829;48.990;8.346;2023-04-03T12:04:26;9.70;69.70
5055;DHT22;13829;48.990;8.346;2023-04-03T12:07:13;9.80;69.20
5055;DHT22;13829;48.990;8.346;2023-04-03T12:10:16;9.80;70.20
5055;DHT22;13829;48.990;8.346;2023-04-03T12:12:58;9.70;71.40
5055;DHT22;13829;48.990;8.346;2023-04-03T12:15:51;9.50;69.20
5055;DHT22;13829;48.990;8.346;2023-04-03T12:18:44;9.20;71.00
5055;DHT22;13829;48.990;8.346;2023-04-03T12:21:24;9.30;71.30
5055;DHT22;13829;48.990;8.346;2023-04-03T12:24:33;9.30;68.40
5055;DHT22;13829;48.990;8.346;2023-04-03T12:27:09;9.70;67.40
5055;DHT22;13829;48.990;8.346;2023-04-03T12:29:51;9.80;69.00
5055;DHT22;13829;48.990;8.346;2023-04-03T12:33:02;9.60;70.40
5055;DHT22;13829;48.990;8.346;2023-04-03T13:15:43;9.60;70.80
5055;DHT22;13829;48.990;8.346;2023-04-03T13:18:26;9.60;70.80
5055;DHT22;13829;48.990;8.346;2023-04-03T13:21:00;10.00;71.30
5055;DHT22;13829;48.990;8.346;2023-04-03T13:23:32;10.10;70.90
5055;DHT22;13829;48.990;8.346;2023-04-03T13:26:03;9.90;70.30
5055;DHT22;13829;48.990;8.346;2023-04-03T13:28:33;9.60;71.50
5055;DHT22;13829;48.990;8.346;2023-04-03T13:38:04;10.20;68.90
5055;DHT22;13829;48.990;8.346;2023-04-03T13:40:33;10.10;68.40
5055;DHT22;13829;48.990;8.346;2023-04-03T13:43:18;10.10;68.40
5055;DHT22;13829;48.990;8.346;2023-04-03T13:45:56;10.20;67.60
5055;DHT22;13829;48.990;8.346;2023-04-03T13:48:26;10.00;64.70
5055;DHT22;13829;48.990;8.346;2023-04-03T13:51:04;10.00;65.00
5055;DHT22;13829;48.990;8.346;2023-04-03T13:53:40;9.90;64.80
5055;DHT22;13829;48.990;8.346;2023-04-03T13:56:17;9.90;65.90
5055;DHT22;13829;48.990;8.346;2023-04-03T13:58:56;10.20;66.10
5055;DHT22;13829;48.990;8.346;2023-04-03T14:01:34;10.10;64.00
5055;DHT22;13829;48.990;8.346;2023-04-03T14:04:14;10.40;63.90
5055;DHT22;13829;48.990;8.346;2023-04-03T14:06:46;10.50;64.00
5055;DHT22;13829;48.990;8.346;2023-04-03T14:09:14;10.60;63.20
5055;DHT22;13829;48.990;8.346;2023-04-03T14:11:42;10.50;63.10
5055;DHT22;13829;48.990;8.346;2023-04-03T14:14:14;10.40;63.20
5055;DHT22;13829;48.990;8.346;2023-04-03T14:16:48;10.10;64.00
5055;DHT22;13829;48.990;8.346;2023-04-03T14:19:21;9.90;66.60
5055;DHT22;13829;48.990;8.346;2023-04-03T14:21:52;9.90;64.20
5055;DHT22;13829;48.990;8.346;2023-04-03T14:24:21;9.60;65.40
5055;DHT22;13829;48.990;8.346;2023-04-03T14:26:50;9.60;65.90
5055;DHT22;13829;48.990;8.346;2023-04-03T14:29:18;9.70;68.80
5055;DHT22;13829;48.990;8.346;2023-04-03T14:31:47;9.60;70.00
5055;DHT22;13829;48.990;8.346;2023-04-03T14:34:15;9.60;70.00
5055;DHT22;13829;48.990;8.346;2023-04-03T14:36:44;9.50;70.40
5055;DHT22;13829;48.990;8.346;2023-04-03T14:39:17;9.50;71.40
5055;DHT22;13829;48.990;8.346;2023-04-03T14:41:45;9.50;71.70
5055;DHT22;13829;48.990;8.346;2023-04-03T14:44:13;9.60;70.60
5055;DHT22;13829;48.990;8.346;2023-04-03T14:46:43;9.50;70.40
5055;DHT22;13829;48.990;8.346;2023-04-03T14:49:14;9.50;71.00
5055;DHT22;13829;48.990;8.346;2023-04-03T14:51:47;9.50;71.10
5055;DHT22;13829;48.990;8.346;2023-04-03T14:54:18;9.40;70.40
5055;DHT22;13829;48.990;8.346;2023-04-03T14:56:50;9.50;71.20
5055;DHT22;13829;48.990;8.346;2023-04-03T14:59:18;9.40;69.80
5055;DHT22;13829;48.990;8.346;2023-04-03T15:01:47;9.50;68.50
5055;DHT22;13829;48.990;8.346;2023-04-03T15:04:16;9.40;68.60
5055;DHT22;13829;48.990;8.346;2023-04-03T15:06:45;9.30;69.00
5055;DHT22;13829;48.990;8.346;2023-04-03T15:09:19;9.20;68.70
5055;DHT22;13829;48.990;8.346;2023-04-03T15:11:48;9.10;68.70
5055;DHT22;13829;48.990;8.346;2023-04-03T15:14:16;9.10;68.40
5055;DHT22;13829;48.990;8.346;2023-04-03T15:16:43;9.10;67.70
5055;DHT22;13829;48.990;8.346;2023-04-03T15:19:11;9.10;67.70
5055;DHT22;13829;48.990;8.346;2023-04-03T15:21:38;9.20;67.30
5055;DHT22;13829;48.990;8.346;2023-04-03T15:24:06;9.40;65.50
5055;DHT22;13829;48.990;8.346;2023-04-03T15:26:34;9.70;67.30
5055;DHT22;13829;48.990;8.346;2023-04-03T15:29:01;9.70;66.20
5055;DHT22;13829;48.990;8.346;2023-04-03T15:31:30;9.60;66.00
5055;DHT22;13829;48.990;8.346;2023-04-03T15:33:56;9.30;66.10
5055;DHT22;13829;48.990;8.346;2023-04-03T15:36:23;9.00;66.70
5055;DHT22;13829;48.990;8.346;2023-04-03T15:38:53;8.90;67.10
5055;DHT22;13829;48.990;8.346;2023-04-03T15:41:20;8.80;68.00
5055;DHT22;13829;48.990;8.346;2023-04-03T15:43:48;9.00;68.50
5055;DHT22;13829;48.990;8.346;2023-04-03T15:46:15;9.00;68.40
5055;DHT22;13829;48.990;8.346;2023-04-03T15:48:42;9.10;69.10
5055;DHT22;13829;48.990;8.346;2023-04-03T15:51:10;9.40;68.50
5055;DHT22;13829;48.990;8.346;2023-04-03T15:53:37;9.70;67.70
5055;DHT22;13829;48.990;8.346;2023-04-03T15:56:04;9.80;66.20
5055;DHT22;13829;48.990;8.346;2023-04-03T15:58:33;9.90;65.20
5055;DHT22;13829;48.990;8.346;2023-04-03T16:01:02;9.70;65.80
5055;DHT22;13829;48.990;8.346;2023-04-03T16:03:29;9.50;65.30
5055;DHT22;13829;48.990;8.346;2023-04-03T16:05:57;9.20;64.90
5055;DHT22;13829;48.990;8.346;2023-04-03T16:08:24;9.00;65.00
5055;DHT22;13829;48.990;8.346;2023-04-03T16:10:51;9.00;65.10
5055;DHT22;13829;48.990;8.346;2023-04-03T16:13:18;9.20;65.70
5055;DHT22;13829;48.990;8.346;2023-04-03T16:15:45;9.20;66.10
5055;DHT22;13829;48.990;8.346;2023-04-03T16:18:15;9.30;65.50
5055;DHT22;13829;48.990;8.346;2023-04-03T16:20:43;9.60;65.40
5055;DHT22;13829;48.990;8.346;2023-04-03T16:23:11;9.50;64.00
5055;DHT22;13829;48.990;8.346;2023-04-03T16:25:38;9.30;64.90
5055;DHT22;13829;48.990;8.346;2023-04-03T16:28:05;9.20;63.50
5055;DHT22;13829;48.990;8.346;2023-04-03T16:30:33;9.10;63.30
5055;DHT22;13829;48.990;8.346;2023-04-03T16:33:00;9.00;63.80
5055;DHT22;13829;48.990;8.346;2023-04-03T16:35:29;9.00;63.80
5055;DHT22;13829;48.990;8.346;2023-04-03T16:37:56;9.00;63.90
5055;DHT22;13829;48.990;8.346;2023-04-03T16:40:23;9.00;64.20
5055;DHT22;13829;48.990;8.346;2023-04-03T16:42:50;9.00;64.70
5055;DHT22;13829;48.990;8.346;2023-04-03T16:45:17;9.00;64.60
5055;DHT22;13829;48.990;8.346;2023-04-03T16:47:44;9.10;65.10
5055;DHT22;13829;48.990;8.346;2023-04-03T16:50:11;9.00;63.00
5055;DHT22;13829;48.990;8.346;2023-04-03T16:52:39;8.90;63.80
5055;DHT22;13829;48.990;8.346;2023-04-03T16:55:07;8.90;63.20
5055;DHT22;13829;48.990;8.346;2023-04-03T16:57:34;8.80;63.20
5055;DHT22;13829;48.990;8.346;2023-04-03T17:00:02;8.70;63.20
5055;DHT22;13829;48.990;8.346;2023-04-03T17:02:29;8.80;63.20
5055;DHT22;13829;48.990;8.346;2023-04-03T17:04:56;8.70;63.10
5055;DHT22;13829;48.990;8.346;2023-04-03T17:07:24;8.80;63.40
5055;DHT22;13829;48.990;8.346;2023-04-03T17:09:53;8.60;64.00
5055;DHT22;13829;48.990;8.346;2023-04-03T17:12:20;8.60;63.90
5055;DHT22;13829;48.990;8.346;2023-04-03T17:14:48;8.50;64.00
5055;DHT22;13829;48.990;8.346;2023-04-03T17:17:15;8.50;64.90
5055;DHT22;13829;48.990;8.346;2023-04-03T17:19:46;8.50;64.70